Main page
METAR-TAF:

METAR-TAF

Airports :

Sanandaj Airport

Sanandaj, Iran

latitude: 35-20N, longitude: 047-00E, elevation: 1373 m

Current weather observation

The report was made 20 minutes ago, at 05:00 UTC
Wind 14 kt from the West/Southwest
Temperature 8°C
Humidity 66%
Pressure 1021 hPa
Visibility: 9000 m
Scattered clouds at a height of 2500 ft
Few clouds at a height of 3000 ft, Cumulonimbus.
Overcast at a height of 9000 ft
drizzle

METAR: OICS 090500Z 24014KT 9000 DZ SCT025 FEW030CB OVC090 08/02 Q1021 A3016

Time: 08:50 (05:20 UTC)


TAF: missing

Weather observations and forecasts of more than 4000 airports (METAR and TAF reports).

The available stations are represented by yellow and red dots on the map.

Hover mouse over dot to see the name of the station.

Then click to see weather observations and forecasts.

To change the map : click on the green buttons with a black cross to zoom in, on the green button with a dash to zoom out, or on the green arrows for adjacent maps.


METAR-TAF: